Time;durP1;ratioP1;P1;durP2;ratioP2;P2;SDS_P1;SDS_P2;PMS_P1;PMS_P2;Temp;Humidity;BMP_temperature;BMP_pressure;BME280_temperature;BME280_humidity;BME280_pressure;Samples;Min_cycle;Max_cycle;Signal;HPM_P1;HPM_P2
2023/01/04 00:00:26;;;;;;;1.70;0.30;;;13.00;99.90;;;13.38;55.66;101897.72;4861337;28;96944;-58
2023/01/04 00:02:52;;;;;;;1.00;0.60;;;13.10;99.90;;;13.50;56.02;101885.03;4859305;28;96764;-55
2023/01/04 00:05:18;;;;;;;0.60;0.23;;;13.20;99.90;;;13.51;54.84;101898.25;4861537;28;107185;-52
2023/01/04 00:07:44;;;;;;;0.40;0.30;;;13.30;99.90;;;13.66;54.70;101886.31;4855083;28;107449;-55
2023/01/04 00:10:09;;;;;;;0.20;0.10;;;13.40;99.90;;;13.78;55.50;101880.66;4862886;28;102075;-54
2023/01/04 00:12:35;;;;;;;0.20;0.20;;;13.50;99.90;;;13.73;52.08;101879.91;4863244;28;113581;-53
2023/01/04 00:15:02;;;;;;;1.03;0.33;;;13.50;99.90;;;13.77;53.07;101883.38;4860747;28;101194;-54
2023/01/04 00:17:28;;;;;;;2.63;0.40;;;13.60;99.90;;;13.69;51.34;101873.84;4863007;28;96850;-54
2023/01/04 00:19:54;;;;;;;0.50;0.30;;;13.50;99.90;;;13.71;50.57;101876.44;4865373;28;100644;-54
2023/01/04 00:22:19;;;;;;;1.40;0.30;;;13.50;99.90;;;13.74;54.63;101857.78;4862451;28;103240;-53
2023/01/04 00:24:45;;;;;;;0.30;0.20;;;13.40;99.90;;;13.69;50.60;101859.72;4862048;28;97465;-55
2023/01/04 00:27:11;;;;;;;0.20;0.10;;;13.40;99.90;;;13.67;50.66;101861.56;4882859;28;101178;-54
2023/01/04 00:29:37;;;;;;;0.80;0.30;;;13.40;99.90;;;13.76;54.99;101861.28;4890405;28;97416;-59
2023/01/04 00:32:03;;;;;;;0.70;0.20;;;13.50;99.90;;;13.69;54.43;101854.41;4888036;28;97476;-52
2023/01/04 00:34:29;;;;;;;0.33;0.30;;;13.40;99.90;;;13.79;55.25;101850.56;4891421;28;97713;-52
2023/01/04 00:36:55;;;;;;;1.93;0.30;;;13.50;99.90;;;13.80;55.08;101836.41;4884626;28;104974;-52
2023/01/04 00:39:20;;;;;;;0.83;0.20;;;13.60;99.90;;;13.80;52.27;101828.44;4899276;28;97070;-55
2023/01/04 00:41:51;;;;;;;0.30;0.10;;;13.60;99.90;;;13.80;51.75;101824.94;4890706;28;97191;-55
2023/01/04 00:44:17;;;;;;;0.50;0.30;;;13.60;99.90;;;13.88;52.55;101823.75;4899887;28;97364;-54
2023/01/04 00:46:43;;;;;;;0.80;0.30;;;13.70;99.90;;;13.90;51.55;101821.09;4887795;28;97282;-57
2023/01/04 00:49:11;;;;;;;2.20;0.47;;;13.70;99.90;;;13.80;52.07;101820.50;4896051;28;96936;-54
2023/01/04 00:51:39;;;;;;;2.67;0.20;;;13.60;99.90;;;13.88;51.37;101813.16;4891341;28;97638;-58
2023/01/04 00:54:09;;;;;;;2.80;0.40;;;13.70;99.90;;;13.99;54.33;101805.72;4898928;28;97487;-57
2023/01/04 00:56:34;;;;;;;1.27;0.30;;;13.80;99.90;;;14.07;53.63;101794.03;4884917;28;97396;-55
2023/01/04 00:59:02;;;;;;;0.73;0.20;;;13.90;99.90;;;14.03;53.49;101806.50;4893519;28;120282;-54
2023/01/04 01:01:29;;;;;;;0.50;0.30;;;13.80;99.90;;;13.94;51.60;101807.66;4896533;28;96894;-56
2023/01/04 01:03:59;;;;;;;1.30;0.27;;;13.70;99.90;;;13.82;53.01;101802.75;4887182;28;97239;-57
2023/01/04 01:06:27;;;;;;;1.00;0.20;;;13.60;99.90;;;13.73;54.41;101804.81;4891212;28;97421;-56
2023/01/04 01:08:53;;;;;;;0.40;0.10;;;13.50;99.90;;;13.72;53.98;101795.97;4888881;28;97187;-57
2023/01/04 01:11:20;;;;;;;2.30;0.40;;;13.50;99.90;;;13.63;54.75;101794.50;4889748;28;98040;-54
2023/01/04 01:13:46;;;;;;;0.00;0.00;;;13.30;99.90;;;13.58;56.31;101788.44;4890068;28;101653;-55
2023/01/04 01:16:16;;;;;;;0.20;0.20;;;13.20;99.90;;;13.57;55.88;101785.84;4880597;28;97329;-55
2023/01/04 01:18:43;;;;;;;4.03;0.47;;;13.30;99.90;;;13.48;56.65;101786.13;4889193;28;97247;-56
2023/01/04 01:21:13;;;;;;;2.20;0.27;;;13.20;99.90;;;13.48;56.16;101788.78;4886181;28;97178;-56
2023/01/04 01:23:40;;;;;;;1.03;0.30;;;13.20;99.90;;;13.40;57.30;101773.97;4888557;28;98074;-53
2023/01/04 01:26:11;;;;;;;0.70;0.30;;;13.10;99.90;;;13.37;57.15;101779.38;4893366;28;97295;-57
2023/01/04 01:28:37;;;;;;;0.80;0.37;;;13.10;99.90;;;13.44;57.01;101769.44;4890665;28;96880;-56
2023/01/04 01:31:28;;;;;;;0.30;0.27;;;13.20;99.90;;;13.38;57.40;101767.84;4895789;28;99788;-53
2023/01/04 01:33:55;;;;;;;2.67;0.43;;;13.10;99.90;;;13.41;57.36;101769.53;4892320;28;97709;-53
2023/01/04 01:36:24;;;;;;;0.20;0.20;;;13.10;99.90;;;13.47;57.39;101757.91;4897693;28;98024;-55
2023/01/04 01:38:50;;;;;;;0.70;0.30;;;13.20;99.90;;;13.38;57.90;101769.63;4893327;28;97244;-51
2023/01/04 01:41:29;;;;;;;0.60;0.27;;;13.10;99.90;;;13.33;58.27;101760.97;4915064;28;97203;-56
2023/01/04 01:44:01;;;;;;;0.20;0.20;;;13.00;99.90;;;13.33;58.19;101756.53;4892041;28;97340;-56
2023/01/04 01:46:40;;;;;;;0.80;0.40;;;13.00;99.90;;;13.38;58.09;101743.13;4891003;28;96685;-54
2023/01/04 01:49:32;;;;;;;0.47;0.40;;;13.10;99.90;;;13.42;57.95;101751.84;4889683;28;97403;-55
2023/01/04 01:52:03;;;;;;;0.10;0.10;;;13.20;99.90;;;13.37;58.50;101742.25;4883601;28;97577;-55
2023/01/04 01:54:35;;;;;;;0.10;0.10;;;13.10;99.90;;;13.40;58.72;101743.94;4898303;28;97216;-55
2023/01/04 01:57:05;;;;;;;2.13;0.27;;;13.20;99.90;;;13.47;58.13;101736.69;4892404;28;97526;-55
2023/01/04 01:59:33;;;;;;;0.87;0.10;;;13.20;99.90;;;13.42;58.09;101733.28;4902082;28;97068;-53
2023/01/04 02:01:59;;;;;;;0.90;0.30;;;13.10;99.90;;;13.43;58.21;101727.94;4892524;28;97467;-54
2023/01/04 02:04:25;;;;;;;0.40;0.20;;;13.10;99.90;;;13.48;58.06;101730.47;4898187;28;106781;-56
2023/01/04 02:06:55;;;;;;;1.27;0.50;;;13.20;99.90;;;13.51;58.14;101725.06;4890963;28;97281;-56
2023/01/04 02:09:22;;;;;;;4.80;0.33;;;13.30;99.90;;;13.56;57.88;101709.88;4884855;28;97392;-55
2023/01/04 02:11:48;;;;;;;0.17;0.13;;;13.30;99.90;;;13.67;57.51;101713.06;4891508;28;96811;-55
2023/01/04 02:14:26;;;;;;;0.67;0.30;;;13.40;99.90;;;13.74;57.81;101714.59;4895477;28;100003;-54
2023/01/04 02:16:55;;;;;;;0.37;0.10;;;13.50;99.90;;;13.78;57.23;101704.78;4882489;28;97094;-54
2023/01/04 02:19:32;;;;;;;3.67;0.40;;;13.60;99.90;;;13.78;57.33;101710.94;4891793;28;96781;-54
2023/01/04 02:22:35;;;;;;;0.10;0.10;;;13.50;99.90;;;13.82;57.31;101707.28;4893871;28;97125;-53
2023/01/04 02:25:42;;;;;;;3.70;0.30;;;13.50;99.90;;;13.75;57.89;101703.09;4883537;28;99217;-54
2023/01/04 02:28:29;;;;;;;0.60;0.20;;;13.50;99.90;;;13.70;57.61;101691.75;4886957;28;96979;-52
2023/01/04 02:31:14;;;;;;;0.20;0.20;;;13.50;99.90;;;13.77;57.41;101692.44;4889122;28;97387;-52
2023/01/04 02:34:02;;;;;;;0.20;0.10;;;13.40;99.90;;;13.69;58.33;101690.88;4892678;28;97217;-49
2023/01/04 02:36:47;;;;;;;1.90;0.30;;;13.40;99.90;;;13.74;57.83;101685.41;4887408;28;98764;-52
2023/01/04 02:39:41;;;;;;;0.10;0.10;;;13.40;99.90;;;13.66;58.75;101690.13;4896365;28;97334;-49
2023/01/04 02:42:19;;;;;;;1.70;0.20;;;13.40;99.90;;;13.57;58.86;101680.66;4895783;28;96605;-53
2023/01/04 02:45:03;;;;;;;0.33;0.20;;;13.30;99.90;;;13.64;58.61;101676.06;4907888;28;97398;-49
2023/01/04 02:50:39;;;;;;;0.37;0.20;;;13.20;99.90;;;13.52;58.64;101668.47;4905738;28;96988;-51
2023/01/04 02:53:13;;;;;;;2.17;0.23;;;13.20;99.90;;;13.50;59.29;101667.66;4891583;28;97273;-56
2023/01/04 02:55:59;;;;;;;0.20;0.10;;;13.20;99.90;;;13.52;59.11;101655.22;4889946;28;100046;-55
2023/01/04 02:58:58;;;;;;;0.47;0.20;;;13.20;99.90;;;13.52;59.32;101649.94;4894140;28;96964;-49
2023/01/04 03:08:33;;;;;;;0.67;0.10;;;13.20;99.90;;;13.49;60.11;101647.38;4821605;29;101385;-56
2023/01/04 03:13:56;;;;;;;0.53;0.20;;;13.10;99.90;;;13.34;60.41;101636.34;4903668;28;97288;-53
2023/01/04 03:16:25;;;;;;;0.27;0.17;;;13.00;99.90;;;13.34;60.92;101631.06;4889707;28;97048;-50
2023/01/04 03:18:55;;;;;;;0.37;0.33;;;13.00;99.90;;;13.36;60.37;101634.53;4890460;28;97751;-54
2023/01/04 03:21:25;;;;;;;0.23;0.20;;;13.00;99.90;;;13.36;60.06;101629.22;4896010;28;98167;-52
2023/01/04 03:35:53;;;;;;;0.37;0.20;;;12.80;99.90;;;13.12;61.10;101614.06;4893125;28;97432;-55
2023/01/04 03:48:28;;;;;;;1.17;0.20;;;12.70;99.90;;;12.74;62.17;101586.09;4888271;28;98807;-54
2023/01/04 03:51:20;;;;;;;0.10;0.00;;;12.70;99.90;;;12.74;62.10;101584.31;4895628;28;96726;-52
2023/01/04 03:54:03;;;;;;;0.10;0.10;;;12.70;99.90;;;12.87;61.80;101579.50;4891081;28;97449;-56
2023/01/04 03:56:32;;;;;;;0.10;0.10;;;12.80;99.90;;;12.95;61.44;101573.97;4899207;28;96996;-57
2023/01/04 03:58:59;;;;;;;0.00;0.00;;;12.90;99.90;;;12.95;61.22;101574.84;4887683;28;97501;-52
2023/01/04 04:01:26;;;;;;;0.00;0.00;;;12.90;99.90;;;12.91;61.13;101575.00;4899524;28;97132;-55
2023/01/04 04:09:22;;;;;;;0.37;0.10;;;12.90;99.90;;;12.99;61.28;101563.22;4895919;28;96624;-53
2023/01/04 04:11:48;;;;;;;0.10;0.03;;;12.90;99.90;;;13.03;60.66;101556.09;4889277;28;97238;-54
2023/01/04 04:14:14;;;;;;;0.50;0.00;;;13.00;99.90;;;12.97;60.93;101550.97;4890692;28;117160;-54
2023/01/04 04:16:40;;;;;;;0.20;0.00;;;12.90;99.90;;;12.92;61.37;101542.31;4892176;28;98262;-54
2023/01/04 04:19:06;;;;;;;0.00;0.00;;;12.90;99.90;;;12.85;61.69;101541.59;4896554;28;96890;-54
2023/01/04 04:21:32;;;;;;;0.00;0.00;;;12.80;99.90;;;12.91;61.14;101543.22;4899768;28;102899;-55
2023/01/04 04:23:57;;;;;;;0.00;0.00;;;12.90;99.90;;;12.88;61.58;101545.97;4892961;28;97986;-52
2023/01/04 04:26:23;;;;;;;0.10;0.10;;;12.80;99.90;;;12.81;61.67;101535.56;4898206;28;102192;-53
2023/01/04 04:28:50;;;;;;;0.10;0.10;;;12.80;99.90;;;12.76;62.05;101548.06;4888827;28;96865;-54
2023/01/04 04:31:16;;;;;;;0.60;0.07;;;12.80;99.90;;;12.90;61.57;101544.13;4909115;28;96949;-53
2023/01/04 04:33:42;;;;;;;0.20;0.00;;;12.90;99.90;;;12.91;61.24;101537.94;4889515;28;102900;-53
2023/01/04 04:36:08;;;;;;;0.00;0.00;;;12.90;99.90;;;12.95;61.60;101547.50;4895531;28;96986;-53
2023/01/04 04:38:35;;;;;;;0.00;0.00;;;13.00;99.90;;;12.95;61.70;101547.50;4894536;28;97075;-50
2023/01/04 04:43:57;;;;;;;0.57;0.20;;;12.90;99.90;;;12.85;62.13;101536.31;4898132;28;97137;-53
2023/01/04 04:46:23;;;;;;;0.00;0.00;;;12.90;99.90;;;12.92;61.67;101540.53;4897719;28;97467;-49
2023/01/04 04:48:49;;;;;;;0.13;0.13;;;12.90;99.90;;;12.94;61.36;101535.19;4891489;28;97628;-53
2023/01/04 04:51:15;;;;;;;0.00;0.00;;;13.00;99.90;;;12.92;61.31;101531.72;4892945;28;96902;-53
2023/01/04 04:53:41;;;;;;;0.37;0.00;;;12.90;99.90;;;12.97;61.32;101524.47;4889958;28;98331;-52
2023/01/04 04:56:07;;;;;;;0.00;0.00;;;13.00;99.90;;;12.95;61.33;101521.00;4890652;28;97655;-51
2023/01/04 04:58:34;;;;;;;0.00;0.00;;;13.00;99.90;;;12.91;61.55;101522.03;4891064;28;97656;-55
2023/01/04 05:00:59;;;;;;;0.23;0.17;;;13.00;99.90;;;12.97;61.78;101524.47;4893929;28;99493;-53
2023/01/04 05:03:25;;;;;;;0.00;0.00;;;13.00;99.90;;;12.97;61.46;101524.47;4890726;28;97550;-53
2023/01/04 05:05:51;;;;;;;0.00;0.00;;;13.00;99.90;;;12.90;61.87;101522.94;4892050;28;114122;-54
2023/01/04 05:08:17;;;;;;;0.30;0.00;;;12.90;99.90;;;12.94;61.94;101509.56;4897117;28;97171;-54
2023/01/04 05:10:43;;;;;;;0.00;0.00;;;13.00;99.90;;;12.99;61.87;101512.91;4897144;28;98163;-48
2023/01/04 05:13:12;;;;;;;0.00;0.00;;;13.00;99.90;;;13.05;61.46;101504.78;4900893;28;97376;-50
2023/01/04 05:15:46;;;;;;;0.30;0.10;;;13.00;99.90;;;13.02;61.84;101514.63;4888020;28;98523;-59
2023/01/04 05:18:16;;;;;;;0.10;0.10;;;13.00;99.90;;;13.02;61.62;101506.69;4897749;28;97317;-55
2023/01/04 05:20:42;;;;;;;0.30;0.00;;;13.00;99.90;;;12.99;61.64;101506.75;4896802;28;97548;-53
2023/01/04 05:23:12;;;;;;;0.20;0.00;;;13.00;99.90;;;12.93;61.45;101496.38;4900372;28;98621;-51
2023/01/04 05:25:39;;;;;;;0.40;0.10;;;13.00;99.90;;;12.98;61.12;101505.03;4891949;28;96758;-58
2023/01/04 05:28:06;;;;;;;0.20;0.10;;;13.00;99.90;;;12.97;61.57;101501.50;4901519;28;111139;-52
2023/01/04 05:30:49;;;;;;;0.50;0.00;;;13.00;99.90;;;13.06;61.72;101492.41;4900031;28;96821;-53
2023/01/04 05:33:28;;;;;;;0.13;0.00;;;13.00;99.90;;;13.13;61.14;101495.72;4893894;28;101839;-48
2023/01/04 05:35:57;;;;;;;0.10;0.10;;;13.10;99.90;;;13.16;60.96;101503.56;4897171;28;97285;-55
2023/01/04 05:38:24;;;;;;;0.50;0.03;;;13.10;99.90;;;13.25;60.34;101496.22;4903307;28;96547;-47
2023/01/04 05:40:51;;;;;;;0.10;0.00;;;13.20;99.90;;;13.14;60.81;101495.66;4891803;28;97234;-55
2023/01/04 05:43:18;;;;;;;0.00;0.00;;;13.20;99.90;;;13.20;61.00;101495.50;4896276;28;97858;-52
2023/01/04 05:45:52;;;;;;;0.00;0.00;;;13.20;99.90;;;13.21;60.46;101491.94;4897323;28;97066;-57
2023/01/04 05:48:19;;;;;;;0.30;0.00;;;13.20;99.90;;;13.23;60.57;101491.88;4898278;28;96830;-54
2023/01/04 05:50:44;;;;;;;0.00;0.00;;;13.20;99.90;;;13.21;60.78;101484.00;4894555;28;96858;-55
2023/01/04 05:53:12;;;;;;;0.20;0.10;;;13.20;99.90;;;13.20;60.86;101482.25;4896748;28;99195;-49
2023/01/04 05:55:38;;;;;;;0.00;0.00;;;13.20;99.90;;;13.18;60.56;101476.16;4889205;28;97316;-54
2023/01/04 05:58:04;;;;;;;0.00;0.00;;;13.20;99.90;;;13.25;60.46;101472.38;4897739;28;97213;-51
2023/01/04 06:00:30;;;;;;;0.00;0.00;;;13.20;99.90;;;13.23;60.60;101458.31;4896832;28;113734;-53
2023/01/04 06:02:56;;;;;;;0.10;0.07;;;13.20;99.90;;;13.18;60.81;101449.66;4906995;28;98057;-53
2023/01/04 06:05:23;;;;;;;1.10;0.10;;;13.20;99.90;;;13.26;60.43;101452.91;4896685;28;97273;-56
2023/01/04 06:07:50;;;;;;;0.00;0.00;;;13.30;99.90;;;13.32;60.72;101447.41;4895125;28;96869;-53
2023/01/04 06:10:16;;;;;;;0.00;0.00;;;13.30;99.90;;;13.33;60.50;101449.13;4894081;28;97094;-56
2023/01/04 06:12:42;;;;;;;0.00;0.00;;;13.30;99.90;;;13.34;59.86;101444.69;4892414;28;97570;-51
2023/01/04 06:15:09;;;;;;;0.00;0.00;;;13.30;99.90;;;13.35;60.15;101442.00;4894731;28;101569;-50
2023/01/04 06:17:36;;;;;;;0.00;0.00;;;13.40;99.90;;;13.43;60.21;101432.88;4906043;28;96915;-53
2023/01/04 06:20:04;;;;;;;0.00;0.00;;;13.40;99.90;;;13.42;60.41;101420.56;4894000;28;96977;-54
2023/01/04 06:22:31;;;;;;;0.00;0.00;;;13.40;99.90;;;13.39;60.33;101427.72;4896253;28;97460;-54
2023/01/04 06:24:58;;;;;;;0.00;0.00;;;13.40;99.90;;;13.39;60.07;101424.19;4889905;28;97224;-56
2023/01/04 06:27:23;;;;;;;0.17;0.00;;;13.40;99.90;;;13.47;60.05;101430.09;4908362;28;96831;-47
2023/01/04 06:29:50;;;;;;;0.10;0.00;;;13.40;99.90;;;13.45;60.13;101425.75;4893853;28;97376;-52
2023/01/04 06:32:16;;;;;;;0.03;0.03;;;13.40;99.90;;;13.38;60.63;101427.75;4892251;28;97710;-52
2023/01/04 06:34:41;;;;;;;0.00;0.00;;;13.30;99.90;;;13.31;60.67;101429.78;4887335;28;97480;-51
2023/01/04 06:37:08;;;;;;;0.00;0.00;;;13.30;99.90;;;13.29;60.61;101420.13;4891900;28;97345;-54
2023/01/04 06:39:36;;;;;;;0.00;0.00;;;13.30;99.90;;;13.32;60.60;101410.31;4890688;28;96989;-56
2023/01/04 06:42:02;;;;;;;0.10;0.03;;;13.30;99.90;;;13.33;60.88;101412.03;4891804;28;97469;-51
2023/01/04 06:44:28;;;;;;;0.00;0.00;;;13.30;99.90;;;13.33;60.87;101408.53;4886901;28;97046;-51
2023/01/04 06:46:54;;;;;;;0.10;0.00;;;13.30;99.90;;;13.36;60.79;101406.63;4890336;28;97024;-52
2023/01/04 06:49:20;;;;;;;0.00;0.00;;;13.30;99.90;;;13.38;60.55;101404.78;4892434;28;97208;-53
2023/01/04 06:51:46;;;;;;;0.00;0.00;;;13.40;99.90;;;13.38;60.87;101415.38;4889553;28;101086;-54
2023/01/04 06:54:12;;;;;;;0.10;0.00;;;13.40;99.90;;;13.39;60.65;101411.81;4893373;28;97526;-52
2023/01/04 06:56:40;;;;;;;0.10;0.10;;;13.40;99.90;;;13.40;60.79;101405.59;4889255;28;97029;-53
2023/01/04 06:59:08;;;;;;;0.00;0.00;;;13.40;99.90;;;13.42;60.81;101404.66;4889635;28;97030;-57
2023/01/04 07:01:34;;;;;;;0.00;0.00;;;13.40;99.90;;;13.42;60.80;101409.97;4889744;28;98819;-52
2023/01/04 07:04:00;;;;;;;0.17;0.10;;;13.40;99.90;;;13.41;61.13;101414.41;4883972;28;97126;-56
2023/01/04 07:06:26;;;;;;;0.13;0.13;;;13.40;99.90;;;13.38;61.22;101410.06;4892021;28;96836;-53
2023/01/04 07:08:52;;;;;;;0.00;0.00;;;13.40;99.90;;;13.45;60.84;101412.50;4888712;28;96908;-55
2023/01/04 07:11:18;;;;;;;0.00;0.00;;;13.50;99.90;;;13.54;59.88;101402.44;4886239;28;97007;-56
2023/01/04 07:13:44;;;;;;;0.00;0.00;;;13.60;99.90;;;13.54;60.53;101422.78;4884267;28;97903;-56
2023/01/04 07:16:10;;;;;;;0.00;0.00;;;13.60;99.90;;;13.55;60.63;101420.06;4885824;28;96871;-54
2023/01/04 07:18:35;;;;;;;0.20;0.00;;;13.60;99.90;;;13.60;60.73;101414.63;4893871;28;97085;-53
2023/01/04 07:21:01;;;;;;;0.00;0.00;;;13.70;99.90;;;13.59;60.66;101408.44;4896269;28;119142;-55
2023/01/04 07:23:27;;;;;;;0.00;0.00;;;13.60;99.90;;;13.62;60.52;101415.44;4889014;28;103165;-55
2023/01/04 07:25:53;;;;;;;0.40;0.10;;;13.60;99.90;;;13.65;60.13;101396.75;4891781;28;96867;-53
2023/01/04 07:31:07;;;;;;;0.10;0.10;;;13.70;99.90;;;13.70;60.04;101390.34;4890109;28;101528;-54
2023/01/04 07:33:34;;;;;;;2.83;0.10;;;13.80;99.90;;;13.70;60.47;101384.19;4891084;28;96908;-56
2023/01/04 07:36:06;;;;;;;0.00;0.00;;;13.70;99.90;;;13.74;60.13;101391.09;4893677;28;97497;-53
2023/01/04 07:38:33;;;;;;;0.20;0.00;;;13.80;99.90;;;13.82;60.03;101404.94;4889929;28;97325;-57
2023/01/04 07:40:59;;;;;;;0.53;0.00;;;13.80;99.90;;;13.91;59.46;101399.31;4886039;28;97840;-56
2023/01/04 07:43:25;;;;;;;0.00;0.00;;;13.90;99.90;;;13.87;59.92;101397.66;4892104;28;97435;-56
2023/01/04 07:45:51;;;;;;;0.00;0.00;;;14.00;99.90;;;13.92;60.21;101381.63;4884390;28;97053;-55
2023/01/04 07:48:17;;;;;;;0.00;0.00;;;14.00;99.90;;;13.95;59.17;101390.31;4891174;28;96938;-55
2023/01/04 07:50:45;;;;;;;0.00;0.00;;;14.00;99.90;;;14.06;59.03;101381.09;4887158;28;116342;-54
2023/01/04 07:53:11;;;;;;;0.10;0.07;;;14.00;99.90;;;14.06;59.30;101384.59;4893564;28;97135;-56
2023/01/04 07:55:37;;;;;;;0.00;0.00;;;14.10;99.90;;;13.95;59.78;101387.66;4890586;28;97186;-55
2023/01/04 07:58:03;;;;;;;0.00;0.00;;;14.00;99.90;;;14.04;58.70;101383.81;4891383;28;96947;-57
2023/01/04 08:00:28;;;;;;;0.13;0.10;;;14.10;99.90;;;14.03;59.57;101386.47;4894592;28;113764;-52
2023/01/04 08:02:54;;;;;;;0.00;0.00;;;14.10;99.90;;;13.99;59.58;101402.53;4900591;28;96574;-55
2023/01/04 08:05:21;;;;;;;0.10;0.00;;;14.00;99.90;;;13.98;59.66;101406.09;4906560;28;96754;-55
2023/01/04 08:07:47;;;;;;;0.00;0.00;;;14.00;99.90;;;13.99;59.45;101397.22;4893965;28;97368;-55
2023/01/04 08:10:13;;;;;;;0.20;0.20;;;14.00;99.90;;;14.02;59.27;101403.31;4891394;28;99584;-55
2023/01/04 08:12:39;;;;;;;0.37;0.10;;;14.00;99.90;;;13.95;59.91;101392.97;4891180;28;97077;-50
2023/01/04 08:15:05;;;;;;;0.00;0.00;;;14.00;99.90;;;13.97;59.45;101404.38;4884330;28;99546;-55
2023/01/04 08:17:31;;;;;;;2.67;0.00;;;14.00;99.90;;;13.96;60.17;101401.78;4886277;28;97223;-53
2023/01/04 08:19:57;;;;;;;0.00;0.00;;;14.00;99.90;;;14.00;59.46;101404.25;4882324;28;98018;-53
2023/01/04 08:22:22;;;;;;;0.00;0.00;;;14.10;99.90;;;13.95;60.03;101411.53;4886449;28;98188;-53
2023/01/04 08:24:48;;;;;;;0.00;0.00;;;14.00;99.90;;;14.09;58.92;101411.00;4881779;28;97306;-52
2023/01/04 08:27:14;;;;;;;0.00;0.00;;;14.10;99.90;;;14.20;58.53;101410.59;4884830;28;108434;-56
2023/01/04 08:29:40;;;;;;;0.00;0.00;;;14.20;99.90;;;14.27;58.61;101401.47;4880990;28;106728;-55
2023/01/04 08:32:05;;;;;;;0.00;0.00;;;14.30;99.90;;;14.27;58.91;101401.47;4902810;28;97571;-55
2023/01/04 08:34:31;;;;;;;0.00;0.00;;;14.30;99.90;;;14.22;58.74;101393.69;4888992;28;96937;-52
2023/01/04 08:36:57;;;;;;;0.60;0.00;;;14.30;99.90;;;14.23;58.22;101398.06;4889705;28;96998;-56
2023/01/04 08:39:23;;;;;;;0.17;0.10;;;14.20;99.90;;;14.21;59.34;101397.28;4882086;28;97781;-52
2023/01/04 08:41:49;;;;;;;0.10;0.10;;;14.20;99.90;;;14.12;59.66;101397.63;4886959;28;97786;-55
2023/01/04 08:44:24;;;;;;;0.00;0.00;;;14.20;99.90;;;14.19;60.11;101404.44;4894465;28;97396;-55
2023/01/04 08:46:52;;;;;;;0.10;0.10;;;14.20;99.90;;;14.20;59.20;101390.22;4894195;28;97223;-53
2023/01/04 08:49:19;;;;;;;0.30;0.00;;;14.20;99.90;;;14.25;59.60;101392.69;4891285;28;97622;-55
2023/01/04 08:51:47;;;;;;;0.00;0.00;;;14.30;99.90;;;14.25;59.77;101392.69;4888495;28;97481;-55
2023/01/04 08:54:12;;;;;;;0.07;0.07;;;14.20;99.90;;;14.21;59.60;101391.09;4888070;28;99502;-53
2023/01/04 08:56:38;;;;;;;0.13;0.10;;;14.20;99.90;;;14.24;59.30;101391.84;4888868;28;98387;-56
2023/01/04 08:59:06;;;;;;;0.00;0.00;;;14.20;99.90;;;14.25;59.16;101385.59;4886595;28;97047;-54
2023/01/04 09:01:33;;;;;;;0.00;0.00;;;14.30;99.90;;;14.26;60.18;101389.13;4891354;28;97049;-54
2023/01/04 09:03:59;;;;;;;0.00;0.00;;;14.30;99.90;;;14.27;59.02;101380.22;4883839;28;97218;-53
2023/01/04 09:06:25;;;;;;;0.00;0.00;;;14.20;99.90;;;14.31;59.36;101379.19;4885104;28;97350;-54
2023/01/04 09:08:51;;;;;;;0.00;0.00;;;14.30;99.90;;;14.31;58.98;101376.53;4868619;28;97185;-55
2023/01/04 09:11:20;;;;;;;0.00;0.00;;;14.30;99.90;;;14.38;58.00;101370.06;4872577;28;97437;-53
2023/01/04 09:13:46;;;;;;;3.00;0.10;;;14.40;99.90;;;14.38;58.92;101372.72;4872384;28;97602;-53
2023/01/04 09:16:16;;;;;;;0.00;0.00;;;14.40;99.90;;;14.39;59.17;101382.41;4875387;28;96792;-54
2023/01/04 09:18:43;;;;;;;0.10;0.10;;;14.40;99.90;;;14.31;59.60;101371.22;4867367;28;99667;-56
2023/01/04 09:21:13;;;;;;;0.00;0.00;;;14.40;99.90;;;14.26;59.52;101371.41;4874159;28;98313;-52
2023/01/04 09:23:40;;;;;;;0.63;0.10;;;14.30;99.90;;;14.28;59.76;101371.34;4871645;28;97538;-53
2023/01/04 09:26:09;;;;;;;0.10;0.10;;;14.30;99.90;;;14.29;58.89;101367.75;4872923;28;99202;-55
2023/01/04 09:28:35;;;;;;;0.20;0.10;;;14.30;99.90;;;14.33;59.55;101369.41;4873489;28;96874;-53
2023/01/04 09:31:11;;;;;;;0.60;0.10;;;14.40;99.90;;;14.32;59.29;101367.66;4871143;28;96788;-55
2023/01/04 09:33:37;;;;;;;0.10;0.10;;;14.40;99.90;;;14.33;59.82;101374.69;4871392;28;97308;-54
2023/01/04 09:36:05;;;;;;;0.00;0.00;;;14.30;99.90;;;14.29;59.07;101367.75;4869830;28;97471;-57
2023/01/04 09:38:33;;;;;;;0.43;0.10;;;14.30;99.90;;;14.30;59.55;101364.19;4872836;28;98058;-56
2023/01/04 09:41:07;;;;;;;0.33;0.13;;;14.40;99.90;;;14.35;59.33;101366.66;4873237;28;97406;-55
2023/01/04 09:43:46;;;;;;;0.63;0.00;;;14.40;99.90;;;14.40;59.48;101365.56;4875495;28;98163;-54
2023/01/04 09:46:41;;;;;;;0.10;0.07;;;14.50;99.90;;;14.49;58.46;101365.22;4867287;28;97531;-57
2023/01/04 09:49:32;;;;;;;0.00;0.00;;;14.50;99.90;;;14.53;58.74;101361.50;4870373;28;100544;-57
2023/01/04 09:52:12;;;;;;;0.07;0.00;;;14.60;99.90;;;14.52;59.20;101370.41;4869796;28;97005;-57
2023/01/04 09:54:57;;;;;;;0.33;0.10;;;14.60;99.90;;;14.59;58.23;101363.91;4869793;28;97505;-60
2023/01/04 09:57:30;;;;;;;0.00;0.00;;;14.60;99.90;;;14.65;58.32;101353.97;4871613;28;98403;-56
2023/01/04 10:00:25;;;;;;;0.00;0.00;;;14.70;99.90;;;14.66;58.84;101345.06;4872383;28;96879;-50
2023/01/04 10:03:06;;;;;;;0.53;0.30;;;14.70;99.90;;;14.59;58.11;101340.00;4869259;28;97202;-55
2023/01/04 10:05:33;;;;;;;0.23;0.10;;;14.60;99.90;;;14.57;59.61;101347.16;4871962;28;97670;-52
2023/01/04 10:08:02;;;;;;;0.20;0.00;;;14.60;99.90;;;14.54;58.58;101346.44;4865328;28;97289;-57
2023/01/04 10:10:53;;;;;;;0.83;0.10;;;14.60;99.90;;;14.61;59.65;101352.34;4869584;28;98233;-57
2023/01/04 10:13:40;;;;;;;0.00;0.00;;;14.70;99.90;;;14.61;59.50;101352.34;4868706;28;100034;-55
2023/01/04 10:16:40;;;;;;;0.10;0.10;;;14.60;99.90;;;14.69;57.71;101336.97;4865853;28;98697;-56
2023/01/04 10:19:32;;;;;;;0.27;0.20;;;14.70;99.90;;;14.66;59.35;101327.34;4871801;28;98245;-56
2023/01/04 10:22:12;;;;;;;0.00;0.00;;;14.70;99.90;;;14.74;59.17;101337.63;4869912;28;99808;-57
2023/01/04 10:24:48;;;;;;;0.03;0.00;;;14.80;99.90;;;14.77;58.96;101338.41;4870770;28;96879;-61
2023/01/04 10:27:31;;;;;;;0.00;0.00;;;14.80;99.90;;;14.78;59.23;101339.25;4879015;28;97579;-53
2023/01/04 10:30:20;;;;;;;0.10;0.10;;;14.80;99.90;;;14.81;60.01;101331.16;4878871;28;97027;-52
2023/01/04 10:33:01;;;;;;;0.00;0.00;;;14.80;99.90;;;14.75;59.84;101339.34;4885142;28;98171;-55
2023/01/04 10:35:27;;;;;;;0.00;0.00;;;14.80;99.90;;;14.80;59.65;101337.41;4887248;28;97642;-55
2023/01/04 10:38:03;;;;;;;0.13;0.00;;;14.80;99.90;;;14.85;59.02;101340.72;4877842;28;103942;-52
2023/01/04 10:40:34;;;;;;;0.00;0.00;;;14.90;99.90;;;14.81;58.63;101326.69;4879832;28;97635;-52
2023/01/04 10:43:31;;;;;;;0.00;0.00;;;14.90;99.90;;;14.84;60.17;101329.22;4886071;28;97652;-54
2023/01/04 10:46:03;;;;;;;0.10;0.00;;;14.80;99.90;;;14.84;60.54;101323.03;4872176;28;98500;-53
2023/01/04 10:48:45;;;;;;;0.10;0.00;;;14.80;99.90;;;14.77;60.86;101332.22;4873745;28;97290;-51
2023/01/04 10:51:18;;;;;;;0.00;0.00;;;14.80;99.90;;;14.71;61.27;101328.00;4868125;28;97617;-54
2023/01/04 10:54:32;;;;;;;0.00;0.00;;;14.70;99.90;;;14.77;59.26;101326.91;4863532;28;97839;-55
2023/01/04 10:57:17;;;;;;;0.27;0.10;;;14.70;99.90;;;14.78;61.21;101318.00;4868977;28;98094;-55
2023/01/04 11:00:26;;;;;;;0.00;0.00;;;14.80;99.90;;;14.80;59.38;101316.16;4865972;28;96770;-55
2023/01/04 11:03:10;;;;;;;0.00;0.00;;;14.90;99.90;;;14.80;61.88;101313.50;4866991;28;97007;-55
2023/01/04 11:05:51;;;;;;;0.00;0.00;;;14.80;99.90;;;14.73;60.61;101298.72;4868669;28;97198;-53
2023/01/04 11:08:44;;;;;;;0.20;0.10;;;14.80;99.90;;;14.84;60.62;101309.78;4868746;28;99900;-54
2023/01/04 11:11:37;;;;;;;0.07;0.07;;;14.90;99.90;;;14.89;60.14;101294.47;4872896;28;96943;-52
2023/01/04 11:14:04;;;;;;;0.00;0.00;;;15.00;99.90;;;14.90;61.80;101293.59;4865352;28;97625;-51